Time;durP1;ratioP1;P1;durP2;ratioP2;P2;SDS_P1;SDS_P2;PMS_P1;PMS_P2;Temp;Humidity;BMP_temperature;BMP_pressure;BME280_temperature;BME280_humidity;BME280_pressure;Samples;Min_cycle;Max_cycle;Signal;HPM_P1;HPM_P2
2022/08/21 00:00:00;;;;;;;1.10;1.10;;;19.20;80.70;;;;;;4948197;28;20043;-61
2022/08/21 00:02:27;;;;;;;1.15;1.15;;;19.20;80.50;;;;;;4946047;28;20475;-61
2022/08/21 00:04:53;;;;;;;1.10;1.10;;;19.10;80.20;;;;;;4949770;28;20090;-60
2022/08/21 00:07:19;;;;;;;1.35;1.25;;;19.10;80.20;;;;;;4946135;28;20035;-62
2022/08/21 00:09:45;;;;;;;1.48;1.38;;;19.00;80.30;;;;;;4951490;28;20039;-60
2022/08/21 00:12:11;;;;;;;1.27;1.10;;;19.00;80.70;;;;;;4939137;28;20045;-62
2022/08/21 00:14:37;;;;;;;1.27;1.17;;;18.90;81.10;;;;;;4949393;28;20101;-62
2022/08/21 00:17:04;;;;;;;1.25;1.15;;;18.90;81.30;;;;;;4951025;28;20460;-62
2022/08/21 00:19:31;;;;;;;1.42;1.30;;;18.90;81.50;;;;;;4951587;28;20047;-61
2022/08/21 00:21:57;;;;;;;2.08;1.48;;;18.80;81.50;;;;;;4951537;28;20547;-60
2022/08/21 00:24:24;;;;;;;1.45;1.30;;;18.80;81.30;;;;;;4951386;28;20050;-59
2022/08/21 00:26:50;;;;;;;1.40;1.30;;;18.80;81.30;;;;;;4950932;28;20499;-62
2022/08/21 00:29:16;;;;;;;1.35;1.27;;;18.90;81.20;;;;;;4953900;28;20066;-59
2022/08/21 00:31:42;;;;;;;1.40;1.30;;;18.80;80.90;;;;;;4957378;28;20126;-61
2022/08/21 00:34:10;;;;;;;1.60;1.50;;;18.80;80.60;;;;;;4956555;28;20141;-61
2022/08/21 00:36:35;;;;;;;1.20;1.20;;;18.80;80.40;;;;;;4958389;28;20046;-61
2022/08/21 00:39:02;;;;;;;1.55;1.30;;;18.80;80.30;;;;;;4957566;28;20483;-61
2022/08/21 00:41:28;;;;;;;1.40;1.30;;;18.70;80.10;;;;;;4954100;28;20069;-61
2022/08/21 00:43:55;;;;;;;1.52;1.42;;;18.70;80.50;;;;;;4956592;28;20073;-61
2022/08/21 00:46:21;;;;;;;1.42;1.33;;;18.60;81.20;;;;;;4953384;28;20477;-60
2022/08/21 00:48:47;;;;;;;1.25;1.20;;;18.70;80.70;;;;;;4953705;28;20518;-61
2022/08/21 00:51:25;;;;;;;1.23;1.13;;;18.50;80.80;;;;;;4955981;28;20035;-59
2022/08/21 00:53:57;;;;;;;1.10;1.00;;;18.50;81.20;;;;;;4956090;28;20034;-60
2022/08/21 00:56:24;;;;;;;1.80;1.15;;;18.40;81.30;;;;;;4954652;28;20078;-59
2022/08/21 00:58:53;;;;;;;2.08;1.48;;;18.30;81.30;;;;;;4954715;28;20043;-59
2022/08/21 01:01:19;;;;;;;1.23;1.20;;;18.30;81.30;;;;;;4951086;28;20114;-60
2022/08/21 01:03:46;;;;;;;2.28;1.30;;;18.30;81.30;;;;;;4953894;28;20109;-59
2022/08/21 01:06:12;;;;;;;3.33;1.40;;;18.20;81.60;;;;;;4954500;28;20508;-61
2022/08/21 01:08:38;;;;;;;1.30;1.20;;;18.20;81.60;;;;;;4956676;28;20090;-62
2022/08/21 01:11:05;;;;;;;1.83;1.35;;;18.10;81.70;;;;;;4948653;28;20062;-60
2022/08/21 01:13:34;;;;;;;1.35;1.25;;;18.00;81.90;;;;;;4952719;28;20035;-60
2022/08/21 01:16:03;;;;;;;1.70;1.58;;;18.00;82.00;;;;;;4954531;28;20150;-61
2022/08/21 01:18:29;;;;;;;1.63;1.25;;;17.90;82.00;;;;;;4953326;28;20288;-62
2022/08/21 01:21:08;;;;;;;1.70;1.60;;;17.90;82.10;;;;;;4952736;28;20043;-61
2022/08/21 01:23:35;;;;;;;3.85;1.40;;;17.90;82.40;;;;;;4953276;28;20081;-61
2022/08/21 01:26:02;;;;;;;1.58;1.48;;;17.80;82.40;;;;;;4956669;28;20058;-62
2022/08/21 01:28:31;;;;;;;1.85;1.52;;;17.80;82.30;;;;;;4951844;28;20043;-59
2022/08/21 01:30:58;;;;;;;1.70;1.60;;;17.80;82.40;;;;;;4956465;28;20081;-61
2022/08/21 01:33:25;;;;;;;1.63;1.52;;;17.80;82.20;;;;;;4950664;28;20034;-59
2022/08/21 01:35:51;;;;;;;1.85;1.60;;;17.80;82.00;;;;;;4955254;28;20038;-60
2022/08/21 01:38:17;;;;;;;1.50;1.40;;;17.80;82.00;;;;;;4957181;28;20023;-60
2022/08/21 01:40:43;;;;;;;4.63;1.70;;;17.70;82.00;;;;;;4952175;28;20051;-59
2022/08/21 01:43:09;;;;;;;1.80;1.70;;;17.70;81.90;;;;;;4955068;28;20073;-61
2022/08/21 01:45:35;;;;;;;1.60;1.50;;;17.70;82.00;;;;;;4955616;28;20039;-60
2022/08/21 01:48:02;;;;;;;2.45;1.50;;;17.60;82.10;;;;;;4953537;28;20130;-60
2022/08/21 01:50:28;;;;;;;4.13;1.80;;;17.60;82.50;;;;;;4954884;28;20043;-61
2022/08/21 01:52:54;;;;;;;1.52;1.42;;;17.60;82.80;;;;;;4953550;28;20549;-61
2022/08/21 01:55:20;;;;;;;1.80;1.70;;;17.60;82.80;;;;;;4953495;28;20118;-61
2022/08/21 01:57:47;;;;;;;1.63;1.38;;;17.50;82.70;;;;;;4954232;28;20039;-61
2022/08/21 02:00:15;;;;;;;1.70;1.60;;;17.50;82.80;;;;;;4953795;28;20039;-60
2022/08/21 02:02:41;;;;;;;1.70;1.60;;;17.50;82.70;;;;;;4951458;28;20039;-62
2022/08/21 02:05:08;;;;;;;1.58;1.48;;;17.50;82.40;;;;;;4953499;28;20423;-60
2022/08/21 02:07:42;;;;;;;1.67;1.58;;;17.50;82.50;;;;;;4954768;28;20648;-60
2022/08/21 02:10:10;;;;;;;1.77;1.67;;;17.50;82.70;;;;;;4955285;28;20135;-60
2022/08/21 02:12:36;;;;;;;1.70;1.60;;;17.50;82.70;;;;;;4951474;28;20037;-60
2022/08/21 02:15:07;;;;;;;1.63;1.52;;;17.50;82.40;;;;;;4951718;28;20710;-60
2022/08/21 02:18:07;;;;;;;1.52;1.42;;;17.50;82.00;;;;;;4951540;28;20055;-60
2022/08/21 02:20:46;;;;;;;2.72;1.70;;;17.50;81.90;;;;;;4942974;28;20615;-61
2022/08/21 02:23:12;;;;;;;2.25;1.40;;;17.50;81.80;;;;;;4950347;28;20122;-61
2022/08/21 02:25:39;;;;;;;1.30;1.30;;;17.40;81.80;;;;;;4949122;28;20042;-60
2022/08/21 02:28:09;;;;;;;1.63;1.40;;;17.40;82.00;;;;;;4951047;28;20586;-59
2022/08/21 02:30:38;;;;;;;1.13;1.10;;;17.40;82.00;;;;;;4944634;28;20035;-60
2022/08/21 02:33:05;;;;;;;1.55;1.40;;;17.30;81.70;;;;;;4948948;28;20043;-61
2022/08/21 02:35:31;;;;;;;1.48;1.38;;;17.30;81.50;;;;;;4949669;28;20527;-61
2022/08/21 02:38:03;;;;;;;1.17;1.10;;;17.30;81.50;;;;;;4951015;28;20091;-62
2022/08/21 02:40:33;;;;;;;1.30;1.20;;;17.20;81.60;;;;;;4949249;28;20422;-62
2022/08/21 02:43:00;;;;;;;1.10;1.10;;;17.20;81.90;;;;;;4949228;28;20508;-60
2022/08/21 02:45:28;;;;;;;1.30;1.20;;;17.20;82.20;;;;;;4951450;28;21008;-60
2022/08/21 02:47:56;;;;;;;2.65;1.10;;;17.20;82.40;;;;;;4946132;28;20031;-60
2022/08/21 02:50:28;;;;;;;1.30;1.20;;;17.20;82.60;;;;;;4945753;28;20755;-61
2022/08/21 02:52:54;;;;;;;1.73;1.00;;;17.20;82.80;;;;;;4947792;28;20065;-60
2022/08/21 02:55:21;;;;;;;1.35;1.25;;;17.20;82.70;;;;;;4949350;28;20106;-60
2022/08/21 02:57:48;;;;;;;1.02;1.02;;;17.20;82.50;;;;;;4947391;28;20194;-58
2022/08/21 03:00:14;;;;;;;2.00;1.20;;;17.20;82.30;;;;;;4947832;28;20058;-59
2022/08/21 03:02:41;;;;;;;1.13;1.02;;;17.20;82.20;;;;;;4951862;28;20118;-60
2022/08/21 03:05:09;;;;;;;2.85;1.20;;;17.20;82.10;;;;;;4947968;28;20063;-60
2022/08/21 03:07:36;;;;;;;1.40;1.30;;;17.20;82.00;;;;;;4948769;28;20043;-62
2022/08/21 03:10:03;;;;;;;2.03;1.33;;;17.20;82.20;;;;;;4952006;28;20558;-61
2022/08/21 03:12:29;;;;;;;1.52;1.10;;;17.20;82.20;;;;;;4945697;28;20035;-61
2022/08/21 03:14:54;;;;;;;1.05;1.05;;;17.20;82.10;;;;;;4948250;28;20105;-62
2022/08/21 03:17:20;;;;;;;1.30;1.25;;;17.20;82.00;;;;;;4944913;28;20035;-62
2022/08/21 03:19:45;;;;;;;1.08;1.08;;;17.20;81.80;;;;;;4947404;28;20066;-62
2022/08/21 03:22:11;;;;;;;1.30;1.20;;;17.10;81.80;;;;;;4947336;28;20031;-62
2022/08/21 03:24:37;;;;;;;0.90;0.90;;;17.10;81.80;;;;;;4949652;28;20035;-62
2022/08/21 03:27:03;;;;;;;4.72;1.13;;;17.10;82.00;;;;;;4950039;28;20044;-60
2022/08/21 03:29:28;;;;;;;1.20;1.20;;;17.00;82.00;;;;;;4948821;28;20039;-62
2022/08/21 03:31:54;;;;;;;1.10;1.10;;;17.00;82.30;;;;;;4945970;28;20354;-61
2022/08/21 03:34:21;;;;;;;7.05;1.13;;;17.00;82.40;;;;;;4947584;28;20070;-61
2022/08/21 03:36:48;;;;;;;3.08;1.40;;;17.00;82.50;;;;;;4949115;28;20122;-62
2022/08/21 03:39:15;;;;;;;1.33;1.23;;;16.90;82.50;;;;;;4948972;28;20070;-61
2022/08/21 03:41:40;;;;;;;3.22;1.23;;;16.90;82.70;;;;;;4950309;28;20045;-62
2022/08/21 03:44:06;;;;;;;1.33;1.30;;;16.90;82.90;;;;;;4950476;28;20035;-62
2022/08/21 03:46:31;;;;;;;3.33;1.20;;;16.90;83.10;;;;;;4948283;28;20179;-62
2022/08/21 03:48:57;;;;;;;1.10;1.10;;;16.90;83.20;;;;;;4948768;28;20081;-62
2022/08/21 03:51:23;;;;;;;1.27;1.20;;;17.00;83.30;;;;;;4947500;28;20392;-63
2022/08/21 03:53:48;;;;;;;1.00;1.00;;;16.90;83.10;;;;;;4951258;28;20090;-61
2022/08/21 03:56:15;;;;;;;2.45;1.10;;;16.90;82.90;;;;;;4950957;28;20124;-61
2022/08/21 03:58:41;;;;;;;1.27;1.27;;;17.00;82.70;;;;;;4947667;28;20038;-61
2022/08/21 04:01:07;;;;;;;1.48;1.38;;;17.00;82.40;;;;;;4949252;28;20039;-61
2022/08/21 04:03:35;;;;;;;1.33;1.23;;;16.90;82.40;;;;;;4949987;28;20653;-60
2022/08/21 04:06:00;;;;;;;1.00;1.00;;;16.90;82.60;;;;;;4950434;28;20336;-60
2022/08/21 04:08:26;;;;;;;1.27;1.20;;;16.90;82.30;;;;;;4945890;28;20575;-60
2022/08/21 04:10:54;;;;;;;0.85;0.85;;;16.90;82.10;;;;;;4948008;28;20035;-60
2022/08/21 04:13:20;;;;;;;0.90;0.90;;;16.90;82.40;;;;;;4948043;28;20059;-60
2022/08/21 04:15:47;;;;;;;0.95;0.95;;;16.90;82.60;;;;;;4946135;28;20035;-60
2022/08/21 04:18:13;;;;;;;1.00;1.00;;;16.90;82.60;;;;;;4947980;28;20399;-61
2022/08/21 04:20:40;;;;;;;0.80;0.80;;;16.90;82.30;;;;;;4944910;28;20035;-61
2022/08/21 04:23:06;;;;;;;0.70;0.70;;;16.80;82.10;;;;;;4947704;28;20101;-61
2022/08/21 04:25:32;;;;;;;1.15;1.05;;;16.80;82.20;;;;;;4947364;28;20094;-62
2022/08/21 04:27:58;;;;;;;1.00;1.00;;;16.80;82.10;;;;;;4946269;28;20036;-60
2022/08/21 04:30:24;;;;;;;9.60;1.10;;;16.80;81.70;;;;;;4946836;28;20046;-61
2022/08/21 04:32:50;;;;;;;1.70;0.82;;;16.80;81.70;;;;;;4947275;28;20443;-60
2022/08/21 04:35:19;;;;;;;1.23;1.10;;;16.70;81.60;;;;;;4944673;28;20137;-59
2022/08/21 04:37:44;;;;;;;2.75;1.15;;;16.70;81.80;;;;;;4942556;28;22148;-60
2022/08/21 04:40:12;;;;;;;1.38;0.93;;;16.70;82.00;;;;;;4944097;28;20035;-61
2022/08/21 04:42:50;;;;;;;2.10;0.95;;;16.70;81.50;;;;;;4945268;28;20495;-62
2022/08/21 04:45:21;;;;;;;0.82;0.82;;;16.60;81.40;;;;;;4947393;28;20142;-60
2022/08/21 04:47:50;;;;;;;0.88;0.88;;;16.60;81.30;;;;;;4947122;28;20036;-60
2022/08/21 04:50:15;;;;;;;0.80;0.80;;;16.60;81.70;;;;;;4946634;28;20035;-60
2022/08/21 04:52:41;;;;;;;0.82;0.82;;;16.50;81.90;;;;;;4945243;28;20035;-59
2022/08/21 04:55:07;;;;;;;0.90;0.90;;;16.50;82.00;;;;;;4943749;28;20499;-61
2022/08/21 04:57:34;;;;;;;2.35;0.90;;;16.50;82.00;;;;;;4947611;28;20067;-61
2022/08/21 05:00:00;;;;;;;1.13;1.05;;;16.50;81.70;;;;;;4945863;28;20050;-60
2022/08/21 05:02:26;;;;;;;1.02;1.00;;;16.50;81.50;;;;;;4946568;28;20043;-61
2022/08/21 05:04:54;;;;;;;1.05;1.00;;;16.50;81.50;;;;;;4949472;28;20045;-61
2022/08/21 05:07:23;;;;;;;1.00;1.00;;;16.40;81.70;;;;;;4945081;28;20041;-62
2022/08/21 05:09:50;;;;;;;0.93;0.93;;;16.40;82.10;;;;;;4945348;28;20146;-58
2022/08/21 05:12:15;;;;;;;0.85;0.85;;;16.40;82.40;;;;;;4938858;28;20043;-61
2022/08/21 05:14:42;;;;;;;0.90;0.90;;;16.40;82.40;;;;;;4947059;28;20031;-61
2022/08/21 05:17:08;;;;;;;1.70;1.17;;;16.40;82.40;;;;;;4952545;28;20580;-60
2022/08/21 05:19:34;;;;;;;1.10;1.00;;;16.40;82.00;;;;;;4952177;28;20656;-60
2022/08/21 05:22:00;;;;;;;0.90;0.90;;;16.40;82.10;;;;;;4946973;28;20868;-61
2022/08/21 05:24:27;;;;;;;1.15;1.05;;;16.40;82.50;;;;;;4948503;28;20043;-60
2022/08/21 05:26:53;;;;;;;1.15;0.98;;;16.40;82.90;;;;;;4949424;28;20031;-61
2022/08/21 05:29:19;;;;;;;0.80;0.80;;;16.40;83.30;;;;;;4948095;28;20027;-58
2022/08/21 05:31:45;;;;;;;0.90;0.82;;;16.40;83.40;;;;;;4953110;28;20098;-61
2022/08/21 05:34:11;;;;;;;0.73;0.73;;;16.50;83.60;;;;;;4950132;28;20109;-61
2022/08/21 05:36:37;;;;;;;1.00;1.00;;;16.50;83.80;;;;;;4949636;28;20046;-62
2022/08/21 05:39:03;;;;;;;0.80;0.80;;;16.50;84.00;;;;;;4950357;28;20039;-60
2022/08/21 05:41:28;;;;;;;0.88;0.88;;;16.50;84.10;;;;;;4948485;28;20089;-61
2022/08/21 05:43:54;;;;;;;0.80;0.80;;;16.70;85.20;;;;;;4949825;28;20039;-59
2022/08/21 05:46:20;;;;;;;2.25;0.93;;;16.60;84.40;;;;;;4949051;28;20035;-60
2022/08/21 05:48:45;;;;;;;1.23;0.82;;;16.70;84.50;;;;;;4949092;28;20047;-61
2022/08/21 05:51:13;;;;;;;0.93;0.80;;;16.80;84.70;;;;;;4948480;28;20423;-61
2022/08/21 05:53:41;;;;;;;0.98;0.98;;;16.80;84.80;;;;;;4947477;28;20035;-60
2022/08/21 05:56:08;;;;;;;1.08;1.00;;;16.90;84.80;;;;;;4949548;28;20027;-61
2022/08/21 05:58:34;;;;;;;1.02;1.00;;;17.00;84.80;;;;;;4949453;28;20035;-60
2022/08/21 06:01:01;;;;;;;1.35;1.00;;;17.00;85.00;;;;;;4950200;28;20043;-61
2022/08/21 06:03:30;;;;;;;1.10;1.00;;;17.00;85.20;;;;;;4946860;28;20154;-61
2022/08/21 06:05:56;;;;;;;0.68;0.68;;;17.10;85.30;;;;;;4951778;28;20034;-61
2022/08/21 06:08:22;;;;;;;1.00;1.00;;;17.10;85.30;;;;;;4947592;28;20062;-60
2022/08/21 06:10:50;;;;;;;0.90;0.90;;;17.20;85.40;;;;;;4943059;28;20031;-62
2022/08/21 06:13:18;;;;;;;1.33;1.23;;;17.30;85.50;;;;;;4947600;28;20062;-61
2022/08/21 06:15:44;;;;;;;1.98;1.25;;;17.30;85.50;;;;;;4951092;28;20035;-61
2022/08/21 06:18:10;;;;;;;1.80;1.40;;;17.40;85.70;;;;;;4947396;28;20047;-61
2022/08/21 06:20:35;;;;;;;1.10;1.00;;;17.40;85.50;;;;;;4952448;28;20187;-62
2022/08/21 06:23:02;;;;;;;1.40;1.30;;;17.50;85.50;;;;;;4949310;28;20038;-61
2022/08/21 06:25:28;;;;;;;1.45;1.35;;;17.60;85.50;;;;;;4945621;28;20066;-61
2022/08/21 06:28:04;;;;;;;0.93;0.93;;;17.60;85.70;;;;;;4949055;28;20135;-61
2022/08/21 06:30:29;;;;;;;1.00;1.00;;;17.70;86.00;;;;;;4949885;28;20043;-62
2022/08/21 06:32:55;;;;;;;1.77;0.82;;;17.70;85.80;;;;;;4954162;28;20065;-59
2022/08/21 06:35:21;;;;;;;0.90;0.90;;;17.80;86.00;;;;;;4956129;28;20039;-60
2022/08/21 06:37:46;;;;;;;2.58;0.90;;;17.80;86.00;;;;;;4954122;28;20039;-60
2022/08/21 06:40:12;;;;;;;0.90;0.90;;;17.90;86.20;;;;;;4950417;28;20126;-60
2022/08/21 06:42:38;;;;;;;0.80;0.80;;;17.90;86.20;;;;;;4948075;28;20046;-60
2022/08/21 06:45:04;;;;;;;0.80;0.80;;;18.00;86.40;;;;;;4948858;28;20038;-59
2022/08/21 06:47:30;;;;;;;0.90;0.90;;;18.00;86.40;;;;;;4952187;28;20478;-59
2022/08/21 06:49:56;;;;;;;0.90;0.90;;;18.10;86.50;;;;;;4949510;28;20073;-60
2022/08/21 06:52:21;;;;;;;1.33;1.05;;;18.10;86.60;;;;;;4953184;28;20043;-61
2022/08/21 06:54:47;;;;;;;0.98;0.98;;;18.20;86.60;;;;;;4946941;28;20153;-60
2022/08/21 06:57:13;;;;;;;1.10;1.00;;;18.20;86.60;;;;;;4949189;28;20043;-61
2022/08/21 06:59:38;;;;;;;1.90;1.10;;;18.20;86.40;;;;;;4950416;28;20467;-60
2022/08/21 07:02:04;;;;;;;1.20;1.10;;;18.30;86.30;;;;;;4946123;28;20117;-60
2022/08/21 07:04:30;;;;;;;2.25;1.30;;;18.30;86.40;;;;;;4944281;28;20042;-63
2022/08/21 07:06:55;;;;;;;2.92;1.27;;;18.40;86.90;;;;;;4933292;28;20086;-61
2022/08/21 07:09:21;;;;;;;1.00;1.00;;;18.40;86.90;;;;;;4938771;28;20043;-59
2022/08/21 07:11:51;;;;;;;1.73;1.30;;;18.50;86.70;;;;;;4939268;28;20043;-61
2022/08/21 07:14:17;;;;;;;1.38;1.27;;;18.50;86.70;;;;;;4944590;28;20042;-60
2022/08/21 07:16:43;;;;;;;2.33;1.30;;;18.50;86.40;;;;;;4953454;28;20040;-61
2022/08/21 07:19:08;;;;;;;1.45;1.35;;;18.60;86.50;;;;;;4943842;28;20133;-62
2022/08/21 07:21:34;;;;;;;1.05;1.05;;;18.70;86.30;;;;;;4951095;28;20039;-61
2022/08/21 07:23:59;;;;;;;1.50;1.40;;;18.70;86.20;;;;;;4949018;28;20043;-61
2022/08/21 07:26:25;;;;;;;1.33;1.30;;;18.80;86.00;;;;;;4947232;28;20031;-61
2022/08/21 07:28:51;;;;;;;1.27;1.10;;;18.80;86.10;;;;;;4950465;28;20069;-60
2022/08/21 07:31:19;;;;;;;1.30;1.17;;;18.90;86.00;;;;;;4947786;28;20117;-62
2022/08/21 07:33:45;;;;;;;1.40;1.30;;;19.00;85.80;;;;;;4950720;28;20032;-62
2022/08/21 07:36:11;;;;;;;1.45;1.30;;;19.00;85.30;;;;;;4950130;28;20028;-61
2022/08/21 07:38:37;;;;;;;1.67;1.38;;;19.10;85.10;;;;;;4945686;28;20677;-61
2022/08/21 07:41:10;;;;;;;1.45;1.35;;;19.20;85.00;;;;;;4943265;28;20046;-62
2022/08/21 07:43:37;;;;;;;3.38;1.13;;;19.30;85.00;;;;;;4947538;28;20047;-62
2022/08/21 07:46:03;;;;;;;2.45;1.23;;;19.30;85.20;;;;;;4946804;28;20098;-60
2022/08/21 07:48:28;;;;;;;3.63;1.77;;;19.40;85.00;;;;;;4944853;28;20043;-61
2022/08/21 07:50:55;;;;;;;2.45;1.95;;;19.50;84.00;;;;;;4941800;28;20122;-61
2022/08/21 07:53:20;;;;;;;2.03;1.85;;;19.50;83.40;;;;;;4947670;28;20039;-62
2022/08/21 07:55:46;;;;;;;1.80;1.70;;;19.60;83.30;;;;;;4950021;28;20035;-59
2022/08/21 07:58:12;;;;;;;2.20;1.80;;;19.70;83.70;;;;;;4948428;28;20046;-61
2022/08/21 08:00:39;;;;;;;2.95;1.50;;;19.80;83.10;;;;;;4942709;28;20523;-59
2022/08/21 08:03:05;;;;;;;1.92;1.67;;;19.80;82.90;;;;;;4946063;28;20150;-60
2022/08/21 08:05:31;;;;;;;3.15;1.60;;;19.90;82.70;;;;;;4943480;28;20043;-61
2022/08/21 08:07:58;;;;;;;2.28;1.60;;;19.90;82.40;;;;;;4946778;28;20035;-59
2022/08/21 08:10:24;;;;;;;2.25;1.98;;;20.00;82.10;;;;;;4943548;28;20043;-62
2022/08/21 08:12:54;;;;;;;1.92;1.63;;;20.10;82.00;;;;;;4939238;28;20043;-62
2022/08/21 08:15:22;;;;;;;2.60;1.50;;;20.20;81.90;;;;;;4943370;28;20062;-60
2022/08/21 08:17:49;;;;;;;2.17;1.70;;;20.30;81.70;;;;;;4949222;28;20035;-61
2022/08/21 08:20:16;;;;;;;2.45;1.85;;;20.30;81.60;;;;;;4948864;28;20031;-61
2022/08/21 08:22:42;;;;;;;2.10;1.90;;;20.40;81.20;;;;;;4945058;28;20038;-62
2022/08/21 08:25:11;;;;;;;2.75;1.90;;;20.50;80.50;;;;;;4945512;28;20104;-61
2022/08/21 08:27:37;;;;;;;8.32;2.10;;;20.60;79.80;;;;;;4942153;28;20774;-60
2022/08/21 08:30:05;;;;;;;3.55;1.98;;;20.70;79.40;;;;;;4948353;28;20042;-60
2022/08/21 08:32:31;;;;;;;4.07;1.95;;;20.70;79.30;;;;;;4942699;28;20126;-60
2022/08/21 08:34:56;;;;;;;1.80;1.70;;;20.80;78.50;;;;;;4946977;28;20487;-62
2022/08/21 08:37:22;;;;;;;2.63;2.42;;;20.90;78.40;;;;;;4943419;28;20042;-62
2022/08/21 08:39:49;;;;;;;3.42;2.50;;;21.00;77.90;;;;;;4942962;28;20668;-63
2022/08/21 08:42:28;;;;;;;3.20;2.55;;;21.10;77.00;;;;;;4941628;28;20402;-61
2022/08/21 08:45:21;;;;;;;2.97;2.33;;;21.10;75.50;;;;;;4947945;28;20042;-63
2022/08/21 08:47:55;;;;;;;3.15;2.53;;;21.20;75.60;;;;;;4947560;28;20092;-61
2022/08/21 08:50:27;;;;;;;3.92;2.38;;;21.30;75.70;;;;;;4952363;28;20286;-62
2022/08/21 08:53:04;;;;;;;3.30;2.33;;;21.30;74.80;;;;;;4945595;28;20056;-60
2022/08/21 08:55:37;;;;;;;2.47;2.28;;;21.40;74.60;;;;;;4950628;28;20423;-62
2022/08/21 08:58:03;;;;;;;2.78;2.20;;;21.50;74.30;;;;;;4947577;28;20045;-62
2022/08/21 09:00:31;;;;;;;3.50;2.20;;;21.60;72.80;;;;;;4946520;28;20043;-62
2022/08/21 09:02:59;;;;;;;3.00;2.22;;;21.60;71.60;;;;;;4954184;28;20058;-60
2022/08/21 09:05:42;;;;;;;4.28;2.00;;;21.70;72.30;;;;;;4946379;28;20043;-62
2022/08/21 09:08:16;;;;;;;2.70;2.20;;;21.80;69.30;;;;;;4951248;28;20034;-61
2022/08/21 09:10:51;;;;;;;4.03;2.15;;;21.80;67.70;;;;;;4945358;28;20079;-62
2022/08/21 09:13:35;;;;;;;;;;;21.90;69.00;;;;;;4948276;28;20114;-60
2022/08/21 09:16:07;;;;;;;2.75;2.00;;;22.00;67.60;;;;;;4943260;28;19918;-61
2022/08/21 09:18:50;;;;;;;3.45;2.33;;;22.00;68.10;;;;;;4949131;28;20074;-62
2022/08/21 09:21:37;;;;;;;3.33;2.05;;;22.10;66.90;;;;;;4951882;28;20506;-60
2022/08/21 09:24:31;;;;;;;5.18;2.30;;;22.20;65.60;;;;;;4950211;28;20035;-61
2022/08/21 09:27:08;;;;;;;3.15;2.13;;;22.20;67.00;;;;;;4949172;28;20035;-61
2022/08/21 09:29:37;;;;;;;4.78;2.20;;;22.30;66.90;;;;;;4949547;28;20522;-60
2022/08/21 09:32:17;;;;;;;5.65;2.45;;;22.40;66.80;;;;;;4948828;28;20073;-60
2022/08/21 09:34:54;;;;;;;4.43;2.25;;;22.40;64.10;;;;;;4954388;28;20097;-63
2022/08/21 09:37:19;;;;;;;3.65;2.17;;;22.50;65.20;;;;;;4949986;28;20102;-61
2022/08/21 09:39:45;;;;;;;4.07;2.47;;;22.50;65.50;;;;;;4948335;28;20445;-63
2022/08/21 09:42:20;;;;;;;6.72;2.40;;;22.60;65.60;;;;;;4948636;28;20739;-61
2022/08/21 09:44:46;;;;;;;6.38;2.22;;;22.70;66.50;;;;;;4944592;28;20538;-62
2022/08/21 09:47:12;;;;;;;4.38;1.95;;;22.70;67.30;;;;;;4947073;28;20043;-63
2022/08/21 09:49:40;;;;;;;3.60;2.20;;;22.80;67.40;;;;;;4949202;28;20039;-63
2022/08/21 09:52:21;;;;;;;3.70;2.30;;;22.90;66.90;;;;;;4955452;28;20046;-62
2022/08/21 09:54:53;;;;;;;2.97;2.00;;;23.00;64.30;;;;;;4953719;28;20043;-62
2022/08/21 09:57:41;;;;;;;4.65;2.40;;;23.10;65.50;;;;;;4954731;28;20458;-62
2022/08/21 10:00:11;;;;;;;4.50;2.60;;;23.20;64.50;;;;;;4954263;28;20265;-61
2022/08/21 10:02:36;;;;;;;4.40;2.22;;;23.30;62.40;;;;;;4954141;28;20435;-61
2022/08/21 10:05:22;;;;;;;4.35;2.30;;;23.40;63.60;;;;;;4953297;28;20047;-62
2022/08/21 10:07:48;;;;;;;4.60;2.15;;;23.50;61.60;;;;;;4955439;28;20032;-63
2022/08/21 10:10:19;;;;;;;3.65;2.03;;;23.60;63.70;;;;;;4953773;28;20392;-62
2022/08/21 10:13:03;;;;;;;2.33;1.80;;;23.60;62.10;;;;;;4946409;28;20047;-63
2022/08/21 10:15:38;;;;;;;3.33;1.90;;;23.70;60.00;;;;;;4952045;28;20038;-63
2022/08/21 10:18:12;;;;;;;4.38;2.25;;;23.80;60.30;;;;;;4950496;28;20424;-63
2022/08/21 10:20:45;;;;;;;4.50;2.20;;;23.90;60.60;;;;;;4949555;28;20066;-63
2022/08/21 10:23:30;;;;;;;5.25;2.08;;;24.00;59.10;;;;;;4953299;28;20439;-62
2022/08/21 10:26:05;;;;;;;3.45;1.90;;;24.10;58.90;;;;;;4954540;28;20039;-61
2022/08/21 10:28:47;;;;;;;3.50;1.80;;;24.10;59.40;;;;;;4953243;28;20057;-63
2022/08/21 10:31:38;;;;;;;2.67;2.03;;;24.20;58.10;;;;;;4952460;28;20498;-63
2022/08/21 10:34:26;;;;;;;4.60;1.90;;;24.30;56.80;;;;;;4952331;28;20483;-62
2022/08/21 10:37:15;;;;;;;2.78;1.73;;;24.30;56.50;;;;;;4954065;28;20031;-62
2022/08/21 10:39:46;;;;;;;2.00;1.65;;;24.40;56.70;;;;;;4936016;28;20510;-63
2022/08/21 10:42:25;;;;;;;2.45;1.50;;;24.40;58.20;;;;;;4947222;28;20039;-62
2022/08/21 10:45:09;;;;;;;2.45;1.55;;;24.40;56.70;;;;;;4942823;28;20058;-62
2022/08/21 10:47:42;;;;;;;3.58;1.77;;;24.40;57.30;;;;;;4948028;28;20499;-63
2022/08/21 10:50:19;;;;;;;2.47;1.60;;;24.50;57.70;;;;;;4947341;28;20067;-64
2022/08/21 10:52:56;;;;;;;4.70;1.83;;;24.60;56.80;;;;;;4947057;28;20961;-63
2022/08/21 10:55:26;;;;;;;4.40;1.80;;;24.60;56.20;;;;;;4948788;28;20114;-63
2022/08/21 10:58:00;;;;;;;4.30;1.85;;;24.70;56.50;;;;;;4948578;28;20035;-62
2022/08/21 11:00:38;;;;;;;2.50;1.70;;;24.70;56.00;;;;;;4944510;28;20031;-63
2022/08/21 11:03:10;;;;;;;2.67;1.73;;;24.70;55.70;;;;;;4947608;28;20502;-62
2022/08/21 11:05:50;;;;;;;2.95;1.80;;;24.70;54.70;;;;;;4949863;28;20047;-62
2022/08/21 11:08:40;;;;;;;3.58;1.92;;;24.80;54.70;;;;;;4949528;28;20495;-62
2022/08/21 11:11:18;;;;;;;4.38;1.58;;;24.80;54.50;;;;;;4935719;28;20035;-63
2022/08/21 11:13:47;;;;;;;2.15;1.35;;;24.80;55.40;;;;;;4952650;28;20407;-62
2022/08/21 11:16:31;;;;;;;2.33;1.30;;;24.80;54.90;;;;;;4947546;28;20040;-63
2022/08/21 11:19:21;;;;;;;1.98;1.40;;;24.90;54.40;;;;;;4948194;28;20043;-61
2022/08/21 11:22:02;;;;;;;1.35;1.13;;;24.90;53.30;;;;;;4947356;28;20023;-60
2022/08/21 11:24:34;;;;;;;1.95;1.35;;;25.00;54.80;;;;;;4951167;28;20570;-62
2022/08/21 11:27:17;;;;;;;1.88;1.30;;;25.00;53.40;;;;;;4950522;28;20043;-61
2022/08/21 11:29:50;;;;;;;4.10;1.75;;;25.00;52.50;;;;;;4948070;28;20205;-64
2022/08/21 11:32:30;;;;;;;3.47;1.30;;;25.10;52.90;;;;;;4950439;28;20040;-62
2022/08/21 11:35:02;;;;;;;3.13;1.55;;;25.10;53.70;;;;;;4947633;28;20038;-62
2022/08/21 11:37:44;;;;;;;3.10;1.50;;;25.20;53.00;;;;;;4950837;28;20035;-62
2022/08/21 11:40:37;;;;;;;2.10;1.55;;;25.20;52.40;;;;;;4952398;28;20050;-63
2022/08/21 11:43:18;;;;;;;3.40;1.50;;;25.20;51.60;;;;;;4952435;28;20041;-62
2022/08/21 11:45:54;;;;;;;1.95;1.45;;;25.30;52.30;;;;;;4945939;28;20079;-63
2022/08/21 11:48:58;;;;;;;2.17;1.50;;;25.30;52.40;;;;;;4948509;28;20054;-63
2022/08/21 11:51:58;;;;;;;2.35;1.20;;;25.30;51.30;;;;;;4953835;28;20407;-62
2022/08/21 11:54:48;;;;;;;2.83;1.58;;;25.40;52.50;;;;;;4930269;28;20062;-61
2022/08/21 11:57:24;;;;;;;1.55;1.40;;;25.40;50.90;;;;;;4951439;28;20458;-62
2022/08/21 12:00:02;;;;;;;1.52;1.42;;;25.40;51.20;;;;;;4952438;28;20503;-61
2022/08/21 12:02:33;;;;;;;3.70;1.52;;;25.40;51.30;;;;;;4946941;28;20121;-63
2022/08/21 12:05:21;;;;;;;2.10;1.70;;;25.40;51.70;;;;;;4947718;28;20035;-62
2022/08/21 12:07:47;;;;;;;2.72;1.40;;;25.40;47.80;;;;;;4952623;28;20043;-62
2022/08/21 12:10:20;;;;;;;2.42;1.48;;;25.40;50.30;;;;;;4946281;28;20044;-64
2022/08/21 12:12:46;;;;;;;3.58;1.70;;;25.30;50.00;;;;;;4939360;28;20091;-63
2022/08/21 12:15:21;;;;;;;1.90;1.50;;;25.30;50.90;;;;;;4950240;28;20043;-63
2022/08/21 12:18:00;;;;;;;;;;;25.30;51.20;;;;;;4940508;28;20034;-61
2022/08/21 12:20:37;;;;;;;1.75;1.30;;;25.40;52.60;;;;;;4940478;28;19918;-62
2022/08/21 12:23:08;;;;;;;1.95;1.40;;;25.40;51.30;;;;;;4944513;28;20038;-63
2022/08/21 12:25:40;;;;;;;2.05;1.58;;;25.40;51.60;;;;;;4953233;28;20035;-62
2022/08/21 12:28:13;;;;;;;2.00;1.35;;;25.50;51.80;;;;;;4934037;28;21981;-63
2022/08/21 12:30:46;;;;;;;1.85;1.40;;;25.50;51.30;;;;;;4946057;28;20040;-63
2022/08/21 12:33:32;;;;;;;2.58;1.63;;;25.50;51.40;;;;;;4950402;28;20039;-63
2022/08/21 12:36:06;;;;;;;2.20;1.38;;;25.60;50.60;;;;;;4945751;28;20098;-63
2022/08/21 12:38:47;;;;;;;1.88;1.45;;;25.60;50.50;;;;;;4950933;28;20444;-64
2022/08/21 12:41:19;;;;;;;1.58;1.23;;;25.60;50.90;;;;;;4951517;28;20043;-63
2022/08/21 12:43:55;;;;;;;1.85;1.30;;;25.70;51.00;;;;;;4946138;28;20049;-62
2022/08/21 12:46:30;;;;;;;2.33;1.58;;;25.70;50.40;;;;;;4953364;28;20557;-62
2022/08/21 12:49:01;;;;;;;2.92;1.70;;;25.70;49.10;;;;;;4952091;28;20047;-63
2022/08/21 12:51:53;;;;;;;2.55;1.50;;;25.70;49.80;;;;;;4950305;28;20035;-64
2022/08/21 12:54:29;;;;;;;1.50;1.40;;;25.70;49.10;;;;;;4947843;28;20058;-62
2022/08/21 12:57:06;;;;;;;3.45;1.42;;;25.60;48.30;;;;;;4949461;28;20134;-62
2022/08/21 12:59:37;;;;;;;2.15;1.35;;;25.60;48.80;;;;;;4947391;28;20046;-63
2022/08/21 13:02:12;;;;;;;2.08;1.48;;;25.60;48.20;;;;;;4949212;28;20067;-63